KIFP/IFP METAR and TAF weather

Enter ICAO airport designator
Station Type Date Time Source
KIFP METAR 2021/09/23 23:47 UTC NOAA

KIFP 232347Z 22010KT 20SM SCT100 BKN170 36/07 A2978


Station Type Date Time Source
KIFP Decoded METAR 2021/09/23 23:47 UTC NOAA

Bullhead City, Laughlin/Bullhead International Airport, AZ, United States (KIFP) 35-09-27N 114-33-34W
Sep 23, 2021 - 07:47 PM EDT / 2021.09.23 2347 UTC
Wind: from the SW (220 degrees) at 12 MPH (10 KT):0
Visibility: 20 mile(s):0
Sky conditions: mostly cloudy
Temperature: 96 F (36 C)
Dew Point: 44 F (7 C)
Relative Humidity: 16%
Pressure (altimeter): 29.78 in. Hg (1008 hPa)
ob: KIFP 232347Z 22010KT 20SM SCT100 BKN170 36/07 A2978
cycle: 0

Station Type Date Time Source
KIFP TAF 2021/09/23 18:30 UTC NOAA

TAF KIFP 231729Z 2318/2418 19007KT P6SM SCT250
FM240200 16007KT P6SM FEW250
FM241000 VRB05KT P6SM FEW250

Example: see airport list